Saturday, February 24, 2018, 3:16 AM EST
Back to Local

KGFL, Floyd Bennett Memorial Airport

Location: Queensbury, NY, United States Lat: 43.333
Local Time: 3:16 AM EST ( 8:16 GMT) Lon: -73.617
Time Zone: US/Eastern Elev: 328 ft

Show me the last for .
Show Decoded

2018-02-24 02:53 METAR KGFL 240753Z AUTO 21008KT 3SM BR OVC002 01/01 A3008 RMK AO2 SLP194
                 T00110011 =
2018-02-24 01:53 METAR KGFL 240653Z AUTO 20008KT 5SM BR OVC004 01/01 A3009 RMK AO2 SLP196
                 T00110011 =
2018-02-24 00:53 METAR KGFL 240553Z AUTO 20007KT 4SM BR OVC004 01/01 A3008 RMK AO2 SLP195 60002
                 T00110011 10011 20006 55013 =
2018-02-23 23:53 METAR KGFL 240453Z AUTO 20004KT 4SM BR OVC003 01/01 A3008 RMK AO2 SLP194
                 T00110011 400111106 =
2018-02-23 23:09 METAR KGFL 240409Z AUTO 19004KT 3SM BR OVC004 01/01 A3008 RMK AO2 T00110011 =
2018-02-23 22:53 METAR KGFL 240353Z AUTO 19008KT 2 1/2SM BR OVC004 01/01 A3009 RMK AO2 SLP197
                 T00110011 =
2018-02-23 22:41 METAR KGFL 240341Z AUTO 21005KT 2 1/2SM BR OVC004 01/01 A3009 RMK AO2 T00110011
                 =
2018-02-23 22:31 METAR KGFL 240331Z AUTO 20006KT 2SM BR OVC005 01/01 A3010 RMK AO2 T00110011 =
2018-02-23 21:53 METAR KGFL 240253Z AUTO 21009KT 4SM BR OVC005 01/01 A3012 RMK AO2 SLP209 60002
                 T00110006 58019 =
2018-02-23 20:53 METAR KGFL 240153Z AUTO 20005KT 4SM BR OVC006 01/01 A3015 RMK AO2 SLP220
                 T00110006 =
2018-02-23 19:53 METAR KGFL 240053Z AUTO 20007KT 10SM OVC009 01/01 A3018 RMK AO2 RAB2354E49 CIG
                 007V013 SLP229 P0002 T00110006 =
2018-02-23 19:51 METAR KGFL 240051Z AUTO 20008KT 10SM OVC009 01/01 A3018 RMK AO2 RAB2354E49 CIG
                 007V013 P0002 =
2018-02-23 18:53 METAR KGFL 232353Z AUTO 20007KT 10SM OVC010 01/01 A3021 RMK AO2 RAE18B40E53 CIG
                 007V012 SLP241 P0000 60004 T00060006 10006 20000 56029 =
2018-02-23 17:53 METAR KGFL 232253Z AUTO 21008KT 6SM -RA BR OVC011 01/00 A3023 RMK AO2 UPE01RAB01
                 SLP246 P0003 T00060000 =
2018-02-23 16:53 METAR KGFL 232153Z AUTO 21005KT 5SM UP BR OVC007 00/00 A3026 RMK AO2 UPE2058B28
                 SLP257 P0001 T00000000 =
2018-02-23 16:08 METAR KGFL 232108Z AUTO 19005KT 10SM OVC008 00/M01 A3029 RMK AO2 UPE2058 CIG
                 007V012 P0000 T00001006 =
2018-02-23 15:53 METAR KGFL 232053Z AUTO 18006KT 8SM UP BKN010 OVC016 00/M01 A3030 RMK AO2
                 UPB1959 CIG 008V012 SLP271 P0000 60000 T00001006 58048 =
2018-02-23 15:42 METAR KGFL 232042Z AUTO 20005KT 5SM UP BR BKN012 OVC019 00/M01 A3032 RMK AO2
                 UPB1959 P0000 T00001006 =
2018-02-23 14:53 METAR KGFL 231953Z AUTO 22004KT 3SM BR OVC023 00/M01 A3036 RMK AO2 UPE33 SLP290
                 P0000 T00001011 =
2018-02-23 14:23 METAR KGFL 231923Z AUTO 23003KT 5SM UP BR BKN027 BKN032 OVC043 00/M02 A3037 RMK
                 AO2 P0000 T00001017 =
2018-02-23 13:53 METAR KGFL 231853Z AUTO 21007KT 7SM UP OVC031 00/M02 A3039 RMK AO2 UPB33 SLP302
                 P0000 T00001022 =
2018-02-23 12:53 METAR KGFL 231753Z AUTO 18009KT 10SM SCT037 BKN045 OVC055 00/M04 A3044 RMK AO2
                 PRESFR SLP319 T00001039 10000 21100 58049 =
2018-02-23 11:53 METAR KGFL 231653Z AUTO 20007KT 10SM BKN050 OVC065 00/M05 A3051 RMK AO2 SLP341
                 T00001050 =
2018-02-23 10:53 METAR KGFL 231553Z AUTO 20006KT 10SM FEW080 M01/M05 A3054 RMK AO2 SLP353
                 T10061050 =
2018-02-23 09:53 METAR KGFL 231453Z AUTO 06003KT 10SM SCT100 M03/M07 A3059 RMK AO2 SLP369
                 T10331067 58017 =
2018-02-23 08:53 METAR KGFL 231353Z AUTO 00000KT 10SM FEW120 M05/M07 A3060 RMK AO2 PRESFR SLP372
                 T10501067 =
2018-02-23 07:53 METAR KGFL 231253Z AUTO 22003KT 10SM SCT120 M08/M08 A3064 RMK AO2 SLP389
                 T10781078 =
2018-02-23 06:53 METAR KGFL 231153Z AUTO 00000KT 10SM CLR M10/M11 A3064 RMK AO2 SLP389 70008
                 I6002 T11001106 11056 21106 58017 =
2018-02-23 05:53 METAR KGFL 231053Z AUTO 00000KT 10SM CLR M09/M10 A3066 RMK AO2 SLP393 I1001
                 T10941100 =
2018-02-23 04:53 METAR KGFL 230953Z AUTO 00000KT 10SM CLR M09/M10 A3068 RMK AO2 SLP401 T10941100
                 =
2018-02-23 03:53 METAR KGFL 230853Z AUTO 00000KT 10SM CLR M09/M10 A3069 RMK AO2 SLP405 I1001
                 I3001 T10941100 58007 =

Support USWX by starting your Amazon purchase here.